Time;durP1;ratioP1;P1;durP2;ratioP2;P2;SDS_P1;SDS_P2;PMS_P1;PMS_P2;Temp;Humidity;BMP_temperature;BMP_pressure;BME280_temperature;BME280_humidity;BME280_pressure;Samples;Min_cycle;Max_cycle;Signal;HPM_P1;HPM_P2
2022/12/09 00:00:37;;;;;;;31.20;20.50;;;5.20;95.40;;;;;;4994917;28;20477;-77
2022/12/09 00:03:04;;;;;;;32.17;22.90;;;5.20;95.40;;;;;;4994919;28;20455;-77
2022/12/09 00:05:32;;;;;;;38.47;26.10;;;5.10;95.40;;;;;;4994442;28;21021;-77
2022/12/09 00:07:59;;;;;;;29.90;19.83;;;5.10;95.50;;;;;;4994930;28;20457;-78
2022/12/09 00:10:25;;;;;;;30.13;20.00;;;5.20;95.60;;;;;;4995685;28;20450;-78
2022/12/09 00:12:54;;;;;;;25.57;17.40;;;5.20;96.00;;;;;;4995118;28;20847;-78
2022/12/09 00:15:21;;;;;;;33.40;18.07;;;5.20;95.80;;;;;;4995016;28;20471;-77
2022/12/09 00:17:48;;;;;;;23.73;16.77;;;5.20;95.80;;;;;;4994798;28;20451;-77
2022/12/09 00:20:15;;;;;;;28.03;17.63;;;5.20;95.80;;;;;;4994869;28;20460;-77
2022/12/09 00:22:43;;;;;;;22.50;16.20;;;5.20;95.80;;;;;;4994874;28;20449;-77
2022/12/09 00:25:09;;;;;;;21.57;16.90;;;5.20;95.80;;;;;;4994473;28;20496;-77
2022/12/09 00:27:36;;;;;;;28.43;18.70;;;5.20;95.70;;;;;;4994339;28;20943;-77
2022/12/09 00:30:04;;;;;;;31.53;17.53;;;5.20;95.70;;;;;;4994245;28;20961;-77
2022/12/09 00:32:30;;;;;;;71.50;34.53;;;5.20;95.60;;;;;;4994416;28;20486;-77
2022/12/09 00:34:57;;;;;;;35.17;24.33;;;5.20;95.60;;;;;;4994679;28;20530;-77
2022/12/09 00:37:24;;;;;;;43.67;27.70;;;5.10;95.50;;;;;;4994273;28;20443;-77
2022/12/09 00:39:52;;;;;;;33.77;23.17;;;5.10;95.40;;;;;;4994238;28;20457;-77
2022/12/09 00:42:18;;;;;;;27.43;18.70;;;5.10;95.20;;;;;;4994336;28;20457;-77
2022/12/09 00:44:45;;;;;;;26.20;18.00;;;5.00;95.10;;;;;;4994591;28;20474;-78
2022/12/09 00:47:12;;;;;;;26.27;16.87;;;5.00;95.20;;;;;;4998473;28;20464;-78
2022/12/09 00:49:39;;;;;;;24.83;16.67;;;5.00;95.20;;;;;;5000592;28;20458;-78
2022/12/09 00:52:05;;;;;;;22.30;15.50;;;4.90;95.00;;;;;;5000889;28;20468;-78
2022/12/09 00:54:32;;;;;;;20.83;16.17;;;4.90;94.90;;;;;;5001154;28;20496;-78
2022/12/09 00:57:00;;;;;;;27.33;15.53;;;4.90;94.90;;;;;;5000746;28;20450;-77
2022/12/09 00:59:27;;;;;;;24.30;14.40;;;4.80;94.80;;;;;;5000375;28;20973;-78
2022/12/09 01:01:53;;;;;;;19.20;14.30;;;4.70;94.60;;;;;;5001636;28;20453;-78
2022/12/09 01:04:20;;;;;;;29.83;16.30;;;4.80;94.60;;;;;;5000857;28;20477;-77
2022/12/09 01:06:47;;;;;;;22.90;16.57;;;4.70;94.50;;;;;;5001171;28;20828;-77
2022/12/09 01:09:14;;;;;;;24.10;16.50;;;4.70;94.50;;;;;;5001401;28;20440;-78
2022/12/09 01:11:40;;;;;;;23.23;15.20;;;4.70;94.70;;;;;;5000364;28;20496;-76
2022/12/09 01:14:09;;;;;;;22.90;16.80;;;4.60;94.80;;;;;;5000031;28;21016;-76
2022/12/09 01:16:36;;;;;;;20.40;16.33;;;4.60;94.90;;;;;;5000431;28;20439;-76
2022/12/09 01:19:05;;;;;;;26.93;16.53;;;4.60;95.10;;;;;;5000261;28;20457;-77
2022/12/09 01:21:33;;;;;;;22.10;15.50;;;4.60;95.10;;;;;;5000521;28;20464;-76
2022/12/09 01:24:00;;;;;;;29.33;19.37;;;4.60;95.20;;;;;;5000075;28;21017;-76
2022/12/09 01:26:27;;;;;;;24.90;17.57;;;4.60;95.20;;;;;;5000444;28;20867;-77
2022/12/09 01:28:55;;;;;;;27.37;19.13;;;4.50;95.30;;;;;;5001200;28;20448;-77
2022/12/09 01:31:25;;;;;;;21.03;15.30;;;4.50;95.40;;;;;;5000072;28;20843;-76
2022/12/09 01:33:53;;;;;;;29.53;17.53;;;4.50;95.50;;;;;;5000930;28;20466;-78
2022/12/09 01:36:22;;;;;;;24.83;16.20;;;4.50;95.50;;;;;;5001270;28;20429;-76
2022/12/09 01:38:49;;;;;;;24.47;16.50;;;4.50;95.50;;;;;;5001316;28;20933;-77
2022/12/09 01:41:17;;;;;;;26.23;14.07;;;4.40;95.50;;;;;;5000801;28;20472;-77
2022/12/09 01:43:44;;;;;;;26.10;17.60;;;4.50;95.60;;;;;;5000737;28;20470;-77
2022/12/09 01:46:11;;;;;;;23.13;15.57;;;4.40;95.60;;;;;;5000860;28;20461;-77
2022/12/09 01:48:42;;;;;;;21.87;15.80;;;4.40;95.70;;;;;;5000897;28;20462;-76
2022/12/09 01:51:12;;;;;;;19.73;15.00;;;4.40;95.80;;;;;;5001603;28;20444;-77
2022/12/09 01:53:42;;;;;;;23.27;15.33;;;4.40;95.90;;;;;;5001266;28;20481;-76
2022/12/09 01:56:14;;;;;;;22.10;15.17;;;4.40;96.00;;;;;;5001074;28;20463;-76
2022/12/09 01:58:41;;;;;;;29.07;15.37;;;4.50;96.00;;;;;;4998394;28;20434;-77
2022/12/09 02:01:07;;;;;;;26.90;16.23;;;4.50;95.80;;;;;;4998052;28;20813;-77
2022/12/09 02:03:34;;;;;;;16.50;13.80;;;4.40;95.60;;;;;;4998008;28;20465;-76
2022/12/09 02:06:02;;;;;;;23.73;14.53;;;4.50;95.50;;;;;;4997863;28;20437;-77
2022/12/09 02:08:29;;;;;;;26.03;15.57;;;4.40;95.50;;;;;;4998177;28;20446;-77
2022/12/09 02:11:07;;;;;;;24.47;15.67;;;4.50;95.60;;;;;;4997814;28;20474;-77
2022/12/09 02:13:43;;;;;;;21.13;15.67;;;4.50;95.60;;;;;;4997378;28;20492;-77
2022/12/09 02:16:15;;;;;;;20.20;14.60;;;4.50;95.60;;;;;;4997393;28;20471;-77
2022/12/09 02:18:47;;;;;;;19.10;13.90;;;4.50;95.60;;;;;;4997426;28;20438;-77
2022/12/09 02:21:19;;;;;;;21.60;15.33;;;4.50;95.60;;;;;;4996976;28;20438;-76
2022/12/09 02:23:50;;;;;;;24.90;15.87;;;4.50;95.60;;;;;;4996619;28;20831;-76
2022/12/09 02:26:23;;;;;;;19.53;15.27;;;4.50;95.50;;;;;;4996158;28;20955;-77
2022/12/09 02:29:15;;;;;;;24.10;13.83;;;4.50;95.30;;;;;;4996856;28;20438;-77
2022/12/09 02:32:10;;;;;;;20.60;13.20;;;4.50;95.20;;;;;;4996687;28;20856;-76
2022/12/09 02:34:43;;;;;;;21.23;14.60;;;4.40;95.10;;;;;;4996906;28;20493;-77
2022/12/09 02:37:17;;;;;;;20.93;15.87;;;4.40;95.10;;;;;;4997199;28;20443;-77
2022/12/09 02:39:47;;;;;;;21.37;14.00;;;4.40;95.20;;;;;;4997328;28;20439;-76
2022/12/09 02:42:17;;;;;;;20.67;14.70;;;4.40;95.20;;;;;;4996297;28;20925;-77
2022/12/09 02:44:47;;;;;;;19.80;15.07;;;4.40;95.20;;;;;;4996123;28;20492;-77
2022/12/09 02:47:17;;;;;;;19.37;15.70;;;4.40;95.10;;;;;;4996419;28;20473;-76
2022/12/09 02:49:49;;;;;;;19.40;15.10;;;4.30;94.90;;;;;;4997448;28;20485;-77
2022/12/09 02:52:17;;;;;;;21.17;15.10;;;4.30;94.90;;;;;;4995967;28;20502;-77
2022/12/09 02:54:44;;;;;;;18.10;14.60;;;4.30;95.00;;;;;;4996075;28;20484;-77
2022/12/09 02:57:15;;;;;;;19.73;15.50;;;4.30;95.10;;;;;;4996048;28;20433;-77
2022/12/09 02:59:42;;;;;;;20.07;14.70;;;4.30;95.20;;;;;;4996257;28;20440;-77
2022/12/09 03:02:17;;;;;;;23.53;15.40;;;4.30;95.30;;;;;;4996013;28;20815;-77
2022/12/09 03:04:52;;;;;;;18.30;15.27;;;4.30;95.40;;;;;;4995584;28;20984;-77
2022/12/09 03:07:25;;;;;;;19.07;14.90;;;4.30;95.70;;;;;;4995879;28;20508;-77
2022/12/09 03:09:58;;;;;;;22.10;15.83;;;4.30;95.80;;;;;;4994424;28;20465;-77
2022/12/09 03:12:28;;;;;;;25.50;15.60;;;4.40;96.00;;;;;;4995535;28;20985;-77
2022/12/09 03:14:55;;;;;;;19.60;15.33;;;4.40;96.10;;;;;;4995586;28;20478;-77
2022/12/09 03:17:29;;;;;;;22.17;16.37;;;4.40;96.20;;;;;;4995753;28;20433;-78
2022/12/09 03:20:00;;;;;;;20.83;15.07;;;4.40;96.40;;;;;;4995281;28;20915;-77
2022/12/09 03:22:29;;;;;;;19.03;15.87;;;4.40;96.60;;;;;;4995108;28;20924;-77
2022/12/09 03:25:01;;;;;;;23.43;16.07;;;4.40;96.70;;;;;;4995269;28;20480;-77
2022/12/09 03:27:33;;;;;;;21.30;15.20;;;4.40;96.80;;;;;;4995130;28;20473;-77
2022/12/09 03:30:03;;;;;;;21.63;14.90;;;4.40;96.90;;;;;;4995381;28;20433;-78
2022/12/09 03:32:31;;;;;;;23.57;16.87;;;4.40;96.90;;;;;;4995237;28;20481;-78
2022/12/09 03:35:04;;;;;;;18.53;15.07;;;4.40;96.90;;;;;;4995337;28;20472;-78
2022/12/09 03:37:33;;;;;;;23.63;15.17;;;4.40;96.90;;;;;;4995332;28;20492;-77
2022/12/09 03:40:01;;;;;;;24.07;16.43;;;4.40;97.00;;;;;;4995721;28;20464;-77
2022/12/09 03:42:36;;;;;;;21.70;15.90;;;4.40;97.00;;;;;;4994824;28;20442;-76
2022/12/09 03:45:06;;;;;;;23.57;17.43;;;4.50;97.10;;;;;;4994947;28;20492;-78
2022/12/09 03:47:33;;;;;;;19.60;14.93;;;4.40;97.10;;;;;;4996709;28;20945;-78
2022/12/09 03:50:01;;;;;;;21.20;15.10;;;4.40;97.10;;;;;;4997067;28;20453;-78
2022/12/09 03:52:33;;;;;;;20.80;15.50;;;4.40;97.20;;;;;;4996832;28;20488;-78
2022/12/09 03:55:05;;;;;;;21.07;13.93;;;4.40;97.30;;;;;;4998372;28;20497;-78
2022/12/09 03:57:35;;;;;;;23.40;15.30;;;4.40;97.30;;;;;;4997560;28;20438;-78
2022/12/09 04:00:02;;;;;;;18.27;14.93;;;4.40;97.40;;;;;;4998849;28;20820;-78
2022/12/09 04:02:29;;;;;;;23.43;15.37;;;4.50;97.50;;;;;;4999305;28;20449;-78
2022/12/09 04:04:56;;;;;;;22.20;16.37;;;4.40;97.50;;;;;;4998859;28;20489;-78
2022/12/09 04:07:24;;;;;;;20.50;14.80;;;4.50;97.60;;;;;;4997363;28;20453;-78
2022/12/09 04:09:51;;;;;;;21.37;14.77;;;4.40;97.60;;;;;;4998542;28;20453;-78
2022/12/09 04:12:17;;;;;;;17.87;14.50;;;4.40;97.60;;;;;;4997851;28;20886;-78
2022/12/09 04:14:45;;;;;;;19.17;14.50;;;4.40;97.60;;;;;;4998132;28;20994;-78
2022/12/09 04:17:12;;;;;;;18.47;14.80;;;4.40;97.70;;;;;;4999191;28;20859;-78
2022/12/09 04:19:39;;;;;;;16.80;14.47;;;4.50;97.80;;;;;;4998666;28;20449;-78
2022/12/09 04:22:06;;;;;;;23.50;15.37;;;4.50;97.80;;;;;;5000503;28;20853;-78
2022/12/09 04:24:34;;;;;;;20.77;16.20;;;4.50;97.80;;;;;;5001305;28;20485;-78
2022/12/09 04:27:00;;;;;;;19.23;14.70;;;4.60;98.00;;;;;;5001667;28;20468;-78
2022/12/09 04:29:27;;;;;;;21.30;16.13;;;4.60;98.10;;;;;;5002519;28;20885;-78
2022/12/09 04:31:54;;;;;;;24.50;16.80;;;4.60;98.20;;;;;;5001914;28;20454;-78
2022/12/09 04:34:21;;;;;;;22.53;18.10;;;4.60;98.30;;;;;;5001573;28;20826;-78
2022/12/09 04:36:48;;;;;;;22.47;17.00;;;4.60;98.30;;;;;;5001354;28;20820;-78
2022/12/09 04:39:15;;;;;;;26.83;18.13;;;4.70;98.40;;;;;;5001343;28;20452;-78
2022/12/09 04:41:43;;;;;;;21.93;16.70;;;4.70;98.40;;;;;;5000979;28;20449;-78
2022/12/09 04:44:09;;;;;;;22.03;16.07;;;4.70;98.30;;;;;;5001010;28;20465;-78
2022/12/09 04:46:36;;;;;;;20.47;14.80;;;4.70;98.30;;;;;;5001692;28;20441;-78
2022/12/09 04:49:03;;;;;;;16.83;13.50;;;4.70;98.30;;;;;;5000208;28;20456;-78
2022/12/09 04:51:30;;;;;;;22.47;14.50;;;4.70;98.30;;;;;;4998007;28;20446;-78
2022/12/09 04:53:56;;;;;;;17.40;14.40;;;4.70;98.50;;;;;;4996802;28;20991;-78
2022/12/09 04:56:24;;;;;;;19.90;14.63;;;4.70;98.10;;;;;;4996766;28;20952;-78
2022/12/09 04:58:53;;;;;;;25.20;16.23;;;4.60;98.40;;;;;;4999880;28;20449;-78
2022/12/09 05:01:23;;;;;;;23.53;16.50;;;4.60;98.10;;;;;;4997867;28;20441;-78
2022/12/09 05:03:50;;;;;;;21.17;14.90;;;4.60;98.20;;;;;;5000661;28;20493;-78
2022/12/09 05:06:18;;;;;;;18.97;14.60;;;4.60;98.20;;;;;;4999400;28;20479;-78
2022/12/09 05:08:46;;;;;;;21.80;15.07;;;4.60;98.20;;;;;;4993804;28;20454;-77
2022/12/09 05:11:14;;;;;;;24.63;15.43;;;4.60;98.20;;;;;;4993731;28;20799;-77
2022/12/09 05:13:41;;;;;;;21.93;15.30;;;4.60;98.30;;;;;;4993583;28;21064;-77
2022/12/09 05:16:12;;;;;;;21.10;16.77;;;4.60;98.30;;;;;;4997373;28;20458;-78
2022/12/09 05:18:39;;;;;;;17.77;15.23;;;4.60;98.30;;;;;;5000418;28;20442;-78
2022/12/09 05:21:06;;;;;;;23.00;16.73;;;4.60;98.30;;;;;;5002389;28;20454;-76
2022/12/09 05:23:34;;;;;;;21.67;17.00;;;4.60;98.40;;;;;;5025415;28;20470;-78
2022/12/09 05:26:03;;;;;;;21.03;17.53;;;4.60;98.50;;;;;;5021231;28;20485;-78
2022/12/09 05:28:30;;;;;;;27.50;16.83;;;4.60;98.50;;;;;;5004007;28;20456;-79
2022/12/09 05:30:59;;;;;;;26.33;17.70;;;4.60;98.60;;;;;;5003690;28;20461;-78
2022/12/09 05:33:28;;;;;;;26.20;17.20;;;4.60;98.70;;;;;;5003216;28;20489;-78
2022/12/09 05:35:55;;;;;;;26.70;19.00;;;4.70;98.90;;;;;;5006893;28;20474;-77
2022/12/09 05:38:23;;;;;;;29.40;20.27;;;4.70;98.90;;;;;;5024958;28;20456;-78
2022/12/09 05:40:50;;;;;;;22.70;16.87;;;4.70;98.80;;;;;;5025303;28;20440;-78
2022/12/09 05:43:17;;;;;;;21.20;17.73;;;4.70;98.70;;;;;;5026525;28;20452;-78
2022/12/09 05:45:44;;;;;;;30.47;19.93;;;4.70;98.70;;;;;;5026428;28;20440;-79
2022/12/09 05:48:11;;;;;;;22.93;16.87;;;4.70;98.70;;;;;;5027057;28;20429;-77
2022/12/09 05:50:39;;;;;;;22.60;16.93;;;4.70;98.60;;;;;;5027088;28;20623;-78
2022/12/09 05:53:06;;;;;;;22.40;16.40;;;4.70;98.50;;;;;;5026689;28;20488;-78
2022/12/09 05:55:32;;;;;;;22.60;15.20;;;4.70;98.40;;;;;;5027724;28;20479;-78
2022/12/09 05:57:59;;;;;;;17.97;14.90;;;4.70;98.30;;;;;;5029592;28;20956;-78
2022/12/09 06:00:26;;;;;;;26.30;14.37;;;4.60;98.20;;;;;;5018842;28;20472;-78
2022/12/09 06:02:53;;;;;;;20.97;14.37;;;4.70;98.10;;;;;;5010125;28;20468;-78
2022/12/09 06:05:19;;;;;;;27.37;15.43;;;4.70;98.00;;;;;;5009381;28;20474;-78
2022/12/09 06:07:49;;;;;;;29.27;14.90;;;4.70;98.00;;;;;;5009621;28;20465;-78
2022/12/09 06:10:16;;;;;;;22.20;13.63;;;4.70;97.90;;;;;;5009336;28;20432;-78
2022/12/09 06:12:43;;;;;;;26.77;14.50;;;4.70;97.90;;;;;;5005755;28;20919;-77
2022/12/09 06:15:11;;;;;;;19.20;14.70;;;4.70;97.90;;;;;;4998382;28;20490;-78
2022/12/09 06:17:38;;;;;;;22.00;15.17;;;4.70;97.80;;;;;;4997576;28;20910;-77
2022/12/09 06:20:05;;;;;;;20.30;13.63;;;4.70;97.80;;;;;;4997951;28;20445;-77
2022/12/09 06:22:33;;;;;;;17.60;13.07;;;4.70;97.70;;;;;;4998674;28;20433;-77
2022/12/09 06:25:01;;;;;;;19.00;13.60;;;4.70;97.80;;;;;;4998057;28;20466;-78
2022/12/09 06:27:28;;;;;;;19.40;14.13;;;4.70;97.80;;;;;;4997441;28;20437;-77
2022/12/09 06:29:55;;;;;;;19.63;13.40;;;4.70;97.80;;;;;;4997290;28;20451;-77
2022/12/09 06:32:22;;;;;;;27.53;13.50;;;4.70;97.80;;;;;;4997449;28;20450;-77
2022/12/09 06:34:48;;;;;;;21.50;13.60;;;4.70;97.90;;;;;;4997083;28;20508;-77
2022/12/09 06:37:15;;;;;;;21.13;13.43;;;4.70;97.90;;;;;;4997056;28;20461;-78
2022/12/09 06:39:42;;;;;;;23.87;14.00;;;4.80;98.00;;;;;;4998003;28;20436;-77
2022/12/09 06:42:10;;;;;;;21.03;13.10;;;4.80;97.80;;;;;;4997678;28;20466;-77
2022/12/09 06:44:38;;;;;;;19.93;13.40;;;4.70;97.50;;;;;;4996687;28;20561;-78
2022/12/09 06:47:05;;;;;;;20.83;14.30;;;4.80;97.60;;;;;;5012780;28;20835;-78
2022/12/09 06:49:32;;;;;;;19.30;13.60;;;4.80;97.60;;;;;;5016845;28;20956;-77
2022/12/09 06:51:59;;;;;;;18.10;14.10;;;4.80;97.60;;;;;;5016666;28;20434;-78
2022/12/09 06:54:27;;;;;;;20.07;13.30;;;4.80;97.60;;;;;;5010405;28;20493;-77
2022/12/09 06:56:53;;;;;;;18.00;12.97;;;4.70;97.60;;;;;;4996397;28;20446;-77
2022/12/09 06:59:21;;;;;;;23.67;13.80;;;4.80;97.60;;;;;;4996557;28;20839;-77
2022/12/09 07:01:48;;;;;;;18.73;13.23;;;4.80;97.60;;;;;;4996701;28;20438;-77
2022/12/09 07:04:16;;;;;;;19.97;12.47;;;4.80;97.70;;;;;;4996431;28;20473;-77
2022/12/09 07:06:44;;;;;;;15.13;12.60;;;4.80;97.70;;;;;;4996452;28;20439;-77
2022/12/09 07:09:13;;;;;;;17.00;13.40;;;4.80;97.80;;;;;;4996087;28;20462;-77
2022/12/09 07:11:41;;;;;;;16.03;12.87;;;4.80;97.70;;;;;;4995514;28;20916;-77
2022/12/09 07:14:08;;;;;;;21.97;14.13;;;4.80;97.60;;;;;;4995679;28;20536;-77
2022/12/09 07:16:36;;;;;;;17.17;13.10;;;4.80;97.70;;;;;;4995943;28;20454;-77
2022/12/09 07:19:04;;;;;;;16.53;12.93;;;4.80;97.70;;;;;;4995523;28;20462;-76
2022/12/09 07:21:30;;;;;;;17.73;12.70;;;4.80;97.70;;;;;;5032887;28;20440;-77
2022/12/09 07:23:59;;;;;;;21.83;11.93;;;4.80;97.70;;;;;;5034989;28;20476;-77
2022/12/09 07:26:26;;;;;;;26.20;13.03;;;4.80;97.80;;;;;;5034421;28;20987;-78
2022/12/09 07:28:52;;;;;;;19.30;12.60;;;4.80;97.70;;;;;;5034750;28;20518;-77
2022/12/09 07:31:21;;;;;;;17.83;12.53;;;4.80;97.60;;;;;;5034081;28;20452;-76
2022/12/09 07:33:50;;;;;;;19.53;12.43;;;4.80;97.60;;;;;;5014612;28;20496;-77
2022/12/09 07:36:17;;;;;;;20.07;13.00;;;4.80;97.50;;;;;;5007868;28;20471;-76
2022/12/09 07:38:43;;;;;;;26.57;13.70;;;4.70;97.50;;;;;;4995323;28;20453;-77
2022/12/09 07:41:16;;;;;;;19.03;12.77;;;4.80;97.50;;;;;;4995001;28;20950;-77
2022/12/09 07:43:44;;;;;;;24.20;13.67;;;4.70;97.40;;;;;;4995168;28;20480;-77
2022/12/09 07:46:11;;;;;;;20.10;12.43;;;4.80;97.40;;;;;;4994828;28;20945;-77
2022/12/09 07:48:38;;;;;;;18.83;12.40;;;4.70;97.30;;;;;;4994628;28;20461;-76
2022/12/09 07:51:16;;;;;;;26.00;13.83;;;4.70;97.30;;;;;;4995033;28;20449;-77
2022/12/09 07:53:43;;;;;;;16.23;12.17;;;4.70;97.20;;;;;;4994822;28;20488;-76
2022/12/09 07:56:13;;;;;;;21.63;13.60;;;4.70;97.10;;;;;;4994504;28;20443;-77
2022/12/09 07:58:40;;;;;;;20.53;12.80;;;4.70;97.00;;;;;;4994674;28;20921;-77
2022/12/09 08:01:07;;;;;;;17.90;13.00;;;4.70;96.90;;;;;;4995369;28;20453;-77
2022/12/09 08:03:34;;;;;;;21.60;13.57;;;4.70;96.80;;;;;;4994680;28;20478;-76
2022/12/09 08:06:01;;;;;;;26.97;13.07;;;4.60;96.70;;;;;;4994741;28;20800;-76
2022/12/09 08:08:29;;;;;;;21.13;12.50;;;4.60;96.60;;;;;;4994708;28;20453;-76
2022/12/09 08:10:56;;;;;;;15.47;12.17;;;4.60;96.60;;;;;;4994822;28;20448;-76
2022/12/09 08:13:22;;;;;;;21.73;13.27;;;4.60;96.50;;;;;;4994601;28;20474;-77
2022/12/09 08:15:49;;;;;;;20.77;11.70;;;4.60;96.50;;;;;;4994320;28;20973;-77
2022/12/09 08:18:16;;;;;;;17.30;12.40;;;4.50;96.40;;;;;;4994627;28;20447;-77
2022/12/09 08:20:42;;;;;;;16.80;13.20;;;4.50;96.40;;;;;;4995569;28;20452;-77
2022/12/09 08:23:09;;;;;;;19.97;13.40;;;4.50;96.40;;;;;;4994455;28;20822;-76
2022/12/09 08:25:37;;;;;;;20.20;12.80;;;4.50;96.40;;;;;;4994774;28;20472;-76
2022/12/09 08:28:04;;;;;;;17.70;12.80;;;4.50;96.40;;;;;;4999206;28;20433;-76
2022/12/09 08:30:31;;;;;;;22.63;15.00;;;4.50;96.50;;;;;;4997412;28;20437;-76
2022/12/09 08:32:57;;;;;;;19.83;13.90;;;4.50;96.70;;;;;;4994512;28;20437;-77
2022/12/09 08:35:26;;;;;;;16.50;13.10;;;4.60;96.80;;;;;;4993941;28;20901;-76
2022/12/09 08:37:52;;;;;;;19.20;13.80;;;4.60;97.00;;;;;;4993964;28;20847;-76
2022/12/09 08:40:19;;;;;;;22.83;14.17;;;4.60;97.20;;;;;;4995235;28;20441;-76
2022/12/09 08:42:47;;;;;;;21.97;15.17;;;4.70;97.50;;;;;;4994776;28;20456;-76
2022/12/09 08:45:14;;;;;;;23.60;14.30;;;4.60;97.90;;;;;;4994366;28;20464;-77
2022/12/09 08:47:41;;;;;;;23.70;16.17;;;4.70;97.80;;;;;;4994552;28;20453;-76
2022/12/09 08:50:10;;;;;;;24.43;15.73;;;4.70;97.80;;;;;;4994032;28;20459;-76
2022/12/09 08:52:36;;;;;;;19.87;15.43;;;4.70;97.80;;;;;;4994264;28;20440;-76
2022/12/09 08:55:03;;;;;;;20.63;15.27;;;4.70;97.80;;;;;;4994028;28;20485;-76
2022/12/09 08:57:30;;;;;;;21.23;15.83;;;4.70;97.90;;;;;;4994220;28;20462;-76
2022/12/09 08:59:58;;;;;;;38.03;24.80;;;4.80;98.00;;;;;;4994377;28;20441;-76
2022/12/09 09:02:25;;;;;;;64.77;38.60;;;4.80;98.00;;;;;;4994370;28;20847;-76
2022/12/09 09:04:52;;;;;;;69.70;44.43;;;4.80;98.00;;;;;;4994072;28;20992;-77
2022/12/09 09:07:18;;;;;;;54.67;37.57;;;4.90;98.00;;;;;;4995483;28;20441;-76
2022/12/09 09:09:45;;;;;;;40.10;26.10;;;4.90;98.00;;;;;;4999165;28;20436;-77
2022/12/09 09:12:12;;;;;;;32.20;20.93;;;5.00;98.00;;;;;;5000223;28;20434;-77
2022/12/09 09:14:38;;;;;;;30.93;19.57;;;5.00;97.90;;;;;;5001060;28;20494;-76
2022/12/09 09:17:08;;;;;;;28.33;18.33;;;5.10;98.00;;;;;;5001806;28;20868;-76
2022/12/09 09:19:35;;;;;;;26.40;16.70;;;5.20;97.90;;;;;;5007891;28;20863;-76
2022/12/09 09:22:02;;;;;;;26.07;18.37;;;5.20;97.90;;;;;;5007336;28;20434;-75
2022/12/09 09:24:29;;;;;;;36.07;22.10;;;5.20;97.80;;;;;;5006364;28;20465;-76
2022/12/09 09:26:56;;;;;;;29.27;19.60;;;5.30;97.70;;;;;;5005001;28;20541;-76
2022/12/09 09:29:24;;;;;;;27.07;15.73;;;5.30;97.70;;;;;;5005587;28;20454;-77
2022/12/09 09:31:52;;;;;;;23.70;14.80;;;5.30;97.70;;;;;;5005304;28;20438;-77
2022/12/09 09:34:21;;;;;;;17.53;13.20;;;5.40;97.70;;;;;;5005397;28;20893;-77
2022/12/09 09:36:49;;;;;;;19.23;15.30;;;5.40;97.70;;;;;;5005386;28;20451;-77
2022/12/09 09:39:16;;;;;;;19.40;14.57;;;5.50;97.60;;;;;;5007545;28;20446;-77
2022/12/09 09:41:49;;;;;;;19.27;14.63;;;5.50;97.60;;;;;;5006204;28;20450;-77
2022/12/09 09:44:22;;;;;;;21.70;15.30;;;5.50;97.40;;;;;;5005989;28;20986;-77
2022/12/09 09:46:51;;;;;;;21.90;15.20;;;5.60;97.20;;;;;;5006689;28;20441;-77
2022/12/09 09:49:26;;;;;;;24.40;15.13;;;5.60;96.90;;;;;;5006688;28;20459;-77
2022/12/09 09:51:53;;;;;;;20.60;13.23;;;5.70;96.80;;;;;;5006920;28;20871;-77
2022/12/09 09:54:20;;;;;;;22.83;14.57;;;5.70;96.70;;;;;;5005104;28;20585;-77
2022/12/09 09:56:53;;;;;;;20.00;12.63;;;5.70;96.60;;;;;;5005030;28;20526;-76
2022/12/09 09:59:28;;;;;;;20.73;14.57;;;5.80;96.60;;;;;;5003875;28;20510;-77
2022/12/09 10:02:05;;;;;;;20.20;14.00;;;5.80;96.40;;;;;;5002516;28;20515;-76
2022/12/09 10:04:44;;;;;;;19.07;14.70;;;5.80;96.30;;;;;;5004213;28;20467;-76
2022/12/09 10:07:19;;;;;;;25.53;14.50;;;5.90;96.20;;;;;;5003861;28;20451;-76
2022/12/09 10:09:55;;;;;;;17.70;12.23;;;5.90;96.00;;;;;;5001210;28;20439;-77
2022/12/09 10:12:31;;;;;;;16.80;12.93;;;5.90;95.90;;;;;;5002929;28;20828;-76
2022/12/09 10:15:01;;;;;;;18.70;14.10;;;6.00;95.80;;;;;;5001250;28;20487;-77
2022/12/09 10:17:33;;;;;;;19.30;15.33;;;6.00;95.70;;;;;;5002792;28;20448;-77
2022/12/09 10:20:05;;;;;;;23.40;13.70;;;6.00;95.70;;;;;;4999254;28;20503;-77
2022/12/09 10:22:41;;;;;;;17.13;13.53;;;6.10;95.60;;;;;;5000707;28;20498;-76
2022/12/09 10:25:17;;;;;;;15.07;13.47;;;6.10;95.40;;;;;;5000077;28;20473;-76
2022/12/09 10:27:50;;;;;;;19.47;13.57;;;6.20;95.40;;;;;;5000650;28;20903;-77
2022/12/09 10:30:19;;;;;;;17.80;13.10;;;6.20;95.30;;;;;;4998835;28;20447;-77
2022/12/09 10:32:46;;;;;;;19.00;13.20;;;6.20;95.30;;;;;;4998439;28;20441;-76
2022/12/09 10:35:16;;;;;;;15.00;13.20;;;6.30;95.20;;;;;;4999986;28;20502;-77
2022/12/09 10:37:43;;;;;;;17.93;13.90;;;6.30;95.10;;;;;;4999042;28;20433;-76
2022/12/09 10:40:24;;;;;;;14.30;11.83;;;6.30;95.10;;;;;;4999026;28;20461;-76
2022/12/09 10:45:45;;;;;;;17.87;13.00;;;6.40;94.80;;;;;;4998139;28;20407;-77
2022/12/09 10:48:27;;;;;;;20.80;13.67;;;6.40;94.50;;;;;;4997992;28;20847;-77
2022/12/09 10:50:57;;;;;;;17.40;12.87;;;6.40;94.30;;;;;;4998567;28;20806;-77
2022/12/09 10:53:25;;;;;;;20.93;13.50;;;6.40;94.10;;;;;;4998781;28;20438;-76
2022/12/09 10:55:55;;;;;;;17.47;13.43;;;6.50;93.90;;;;;;4997108;28;20514;-76
2022/12/09 10:58:24;;;;;;;17.37;12.80;;;6.50;93.80;;;;;;4997085;28;20458;-77
2022/12/09 11:01:03;;;;;;;18.17;12.83;;;6.50;93.70;;;;;;4997821;28;20460;-77
2022/12/09 11:03:33;;;;;;;16.80;13.80;;;6.50;93.60;;;;;;4997207;28;20431;-76
2022/12/09 11:06:10;;;;;;;19.30;15.20;;;6.60;93.60;;;;;;4997181;28;20446;-76
2022/12/09 11:08:40;;;;;;;14.87;13.27;;;6.60;93.70;;;;;;4996730;28;20433;-77
2022/12/09 11:11:06;;;;;;;20.70;14.43;;;6.60;93.60;;;;;;4996592;28;20433;-77
2022/12/09 11:13:42;;;;;;;22.60;15.10;;;6.60;93.60;;;;;;4996884;28;20470;-77
2022/12/09 11:16:10;;;;;;;19.60;15.20;;;6.70;93.70;;;;;;4996137;28;20998;-77
2022/12/09 11:18:43;;;;;;;17.60;15.70;;;6.70;93.70;;;;;;4997227;28;20436;-78
2022/12/09 11:21:29;;;;;;;16.37;13.70;;;6.70;93.70;;;;;;4997601;28;20480;-78
2022/12/09 11:23:56;;;;;;;16.87;15.07;;;6.80;93.70;;;;;;4996791;28;20899;-78
2022/12/09 11:26:25;;;;;;;18.57;15.03;;;6.80;93.70;;;;;;4995763;28;20843;-77
2022/12/09 11:29:00;;;;;;;17.77;14.60;;;6.90;93.60;;;;;;4996577;28;20455;-77
2022/12/09 11:31:28;;;;;;;16.93;15.13;;;6.90;93.30;;;;;;4996051;28;20494;-77
2022/12/09 11:33:57;;;;;;;15.53;13.60;;;7.00;93.10;;;;;;4996971;28;21003;-78
2022/12/09 11:36:28;;;;;;;23.63;14.67;;;7.10;92.90;;;;;;4996758;28;20460;-78
2022/12/09 11:39:15;;;;;;;19.77;14.63;;;7.10;92.70;;;;;;5010214;28;20455;-77
2022/12/09 11:44:33;;;;;;;20.17;15.90;;;7.20;92.00;;;;;;4995212;28;20533;-77
2022/12/09 11:47:02;;;;;;;19.47;13.97;;;7.30;91.70;;;;;;4995757;28;20449;-78
2022/12/09 11:49:31;;;;;;;16.73;15.03;;;7.40;91.50;;;;;;4995179;28;20448;-77
2022/12/09 11:52:07;;;;;;;18.03;15.13;;;7.50;91.40;;;;;;4995670;28;20995;-77
2022/12/09 11:54:44;;;;;;;16.70;13.50;;;7.50;91.00;;;;;;4994564;28;21011;-77
2022/12/09 11:57:26;;;;;;;21.37;15.73;;;7.60;90.90;;;;;;4996103;28;20452;-77
2022/12/09 11:59:58;;;;;;;17.30;13.90;;;7.60;90.70;;;;;;4995291;28;20437;-78
2022/12/09 12:02:33;;;;;;;23.53;17.50;;;7.70;90.10;;;;;;4995297;28;20471;-77
2022/12/09 12:05:07;;;;;;;17.80;14.80;;;7.70;89.80;;;;;;4994832;28;20996;-77
2022/12/09 12:07:41;;;;;;;20.63;16.03;;;7.60;89.30;;;;;;4995888;28;20433;-77
2022/12/09 12:10:19;;;;;;;18.87;14.17;;;7.70;89.40;;;;;;4996680;28;20444;-78
2022/12/09 12:12:59;;;;;;;17.80;14.73;;;7.70;89.60;;;;;;4995642;28;20425;-77
2022/12/09 12:15:32;;;;;;;21.10;14.27;;;7.70;89.60;;;;;;4994914;28;20484;-78
2022/12/09 12:18:03;;;;;;;20.70;13.93;;;7.80;89.50;;;;;;4995106;28;20904;-77
2022/12/09 12:20:43;;;;;;;21.80;15.60;;;7.90;89.40;;;;;;4994557;28;20938;-77
2022/12/09 12:23:23;;;;;;;16.77;14.77;;;7.90;89.00;;;;;;4995128;28;20435;-78
2022/12/09 12:25:59;;;;;;;18.40;15.00;;;8.00;89.40;;;;;;4994684;28;21081;-77
2022/12/09 12:28:40;;;;;;;19.10;15.40;;;8.10;88.30;;;;;;4994330;28;20433;-77
2022/12/09 12:31:19;;;;;;;18.43;14.13;;;8.10;87.90;;;;;;4994762;28;20441;-76
2022/12/09 12:33:57;;;;;;;24.80;16.93;;;8.20;87.60;;;;;;4994530;28;20471;-75
2022/12/09 12:36:33;;;;;;;20.70;14.83;;;8.10;87.10;;;;;;4995079;28;20473;-76
2022/12/09 12:39:14;;;;;;;15.80;13.33;;;8.10;86.80;;;;;;4995147;28;20457;-76
2022/12/09 12:41:51;;;;;;;21.20;14.53;;;8.00;86.50;;;;;;4994365;28;20966;-76
2022/12/09 12:47:21;;;;;;;30.10;21.37;;;8.00;86.10;;;;;;4994697;28;20410;-77
2022/12/09 12:50:12;;;;;;;35.00;22.43;;;8.00;85.90;;;;;;4993919;28;20817;-77
2022/12/09 12:52:45;;;;;;;20.23;15.23;;;8.00;86.10;;;;;;4992817;28;20945;-77
2022/12/09 12:55:29;;;;;;;19.80;14.90;;;8.00;85.60;;;;;;4994191;28;20860;-77